sensor_id;sensor_type;location;lat;lon;timestamp;P1;durP1;ratioP1;P2;durP2;ratioP2
72895;SDS011;61036;53.224;6.554;2023-07-22T00:01:59;8.00;;;4.23;;
72895;SDS011;61036;53.224;6.554;2023-07-22T00:04:25;9.80;;;4.60;;
72895;SDS011;61036;53.224;6.554;2023-07-22T00:06:52;8.50;;;3.57;;
72895;SDS011;61036;53.224;6.554;2023-07-22T00:09:17;8.53;;;4.40;;
72895;SDS011;61036;53.224;6.554;2023-07-22T00:11:43;8.60;;;4.03;;
72895;SDS011;61036;53.224;6.554;2023-07-22T00:14:08;9.27;;;4.63;;
72895;SDS011;61036;53.224;6.554;2023-07-22T00:16:34;9.20;;;4.23;;
72895;SDS011;61036;53.224;6.554;2023-07-22T00:19:00;8.13;;;4.03;;
72895;SDS011;61036;53.224;6.554;2023-07-22T00:21:25;8.47;;;4.23;;
72895;SDS011;61036;53.224;6.554;2023-07-22T00:23:51;10.90;;;4.63;;
72895;SDS011;61036;53.224;6.554;2023-07-22T00:26:16;9.70;;;4.87;;
72895;SDS011;61036;53.224;6.554;2023-07-22T00:28:42;9.73;;;4.50;;
72895;SDS011;61036;53.224;6.554;2023-07-22T00:31:08;9.07;;;3.97;;
72895;SDS011;61036;53.224;6.554;2023-07-22T00:33:34;8.27;;;4.70;;
72895;SDS011;61036;53.224;6.554;2023-07-22T00:36:00;8.27;;;4.10;;
72895;SDS011;61036;53.224;6.554;2023-07-22T00:38:25;7.73;;;4.13;;
72895;SDS011;61036;53.224;6.554;2023-07-22T00:40:54;8.03;;;4.50;;
72895;SDS011;61036;53.224;6.554;2023-07-22T00:43:19;7.33;;;4.17;;
72895;SDS011;61036;53.224;6.554;2023-07-22T00:45:45;8.10;;;4.27;;
72895;SDS011;61036;53.224;6.554;2023-07-22T00:48:10;8.20;;;4.57;;
72895;SDS011;61036;53.224;6.554;2023-07-22T00:50:37;8.10;;;4.27;;
72895;SDS011;61036;53.224;6.554;2023-07-22T00:53:04;9.53;;;4.70;;
72895;SDS011;61036;53.224;6.554;2023-07-22T00:55:29;10.07;;;4.67;;
72895;SDS011;61036;53.224;6.554;2023-07-22T00:57:58;8.57;;;4.83;;
72895;SDS011;61036;53.224;6.554;2023-07-22T01:00:24;8.67;;;4.87;;
72895;SDS011;61036;53.224;6.554;2023-07-22T01:02:49;10.17;;;5.37;;
72895;SDS011;61036;53.224;6.554;2023-07-22T01:05:15;8.07;;;4.67;;
72895;SDS011;61036;53.224;6.554;2023-07-22T01:07:41;9.27;;;4.40;;
72895;SDS011;61036;53.224;6.554;2023-07-22T01:10:07;8.33;;;4.33;;
72895;SDS011;61036;53.224;6.554;2023-07-22T01:12:33;10.17;;;5.03;;
72895;SDS011;61036;53.224;6.554;2023-07-22T01:14:59;10.40;;;4.80;;
72895;SDS011;61036;53.224;6.554;2023-07-22T01:17:25;10.80;;;5.27;;
72895;SDS011;61036;53.224;6.554;2023-07-22T01:19:51;11.33;;;5.07;;
72895;SDS011;61036;53.224;6.554;2023-07-22T01:22:17;10.03;;;4.37;;
72895;SDS011;61036;53.224;6.554;2023-07-22T01:24:43;9.00;;;4.60;;
72895;SDS011;61036;53.224;6.554;2023-07-22T01:27:09;10.03;;;4.70;;
72895;SDS011;61036;53.224;6.554;2023-07-22T01:29:35;9.07;;;4.60;;
72895;SDS011;61036;53.224;6.554;2023-07-22T01:32:01;9.90;;;5.13;;
72895;SDS011;61036;53.224;6.554;2023-07-22T01:34:27;9.73;;;4.67;;
72895;SDS011;61036;53.224;6.554;2023-07-22T01:36:53;11.13;;;4.80;;
72895;SDS011;61036;53.224;6.554;2023-07-22T01:39:19;10.13;;;4.73;;
72895;SDS011;61036;53.224;6.554;2023-07-22T01:41:44;10.63;;;4.80;;
72895;SDS011;61036;53.224;6.554;2023-07-22T01:44:10;13.20;;;5.00;;
72895;SDS011;61036;53.224;6.554;2023-07-22T01:46:36;8.77;;;5.43;;
72895;SDS011;61036;53.224;6.554;2023-07-22T01:49:06;9.77;;;3.93;;
72895;SDS011;61036;53.224;6.554;2023-07-22T01:51:36;9.97;;;5.27;;
72895;SDS011;61036;53.224;6.554;2023-07-22T01:54:08;8.30;;;4.13;;
72895;SDS011;61036;53.224;6.554;2023-07-22T01:56:35;8.77;;;4.80;;
72895;SDS011;61036;53.224;6.554;2023-07-22T01:59:05;8.73;;;4.07;;
72895;SDS011;61036;53.224;6.554;2023-07-22T02:01:31;8.70;;;4.03;;
72895;SDS011;61036;53.224;6.554;2023-07-22T02:03:57;8.03;;;4.43;;
72895;SDS011;61036;53.224;6.554;2023-07-22T02:06:22;7.67;;;4.20;;
72895;SDS011;61036;53.224;6.554;2023-07-22T02:08:48;9.20;;;4.37;;
72895;SDS011;61036;53.224;6.554;2023-07-22T02:11:14;8.63;;;4.23;;
72895;SDS011;61036;53.224;6.554;2023-07-22T02:13:40;9.73;;;4.20;;
72895;SDS011;61036;53.224;6.554;2023-07-22T02:16:05;8.00;;;3.87;;
72895;SDS011;61036;53.224;6.554;2023-07-22T02:18:31;11.47;;;4.77;;
72895;SDS011;61036;53.224;6.554;2023-07-22T02:20:57;7.23;;;3.97;;
72895;SDS011;61036;53.224;6.554;2023-07-22T02:23:23;8.60;;;4.17;;
72895;SDS011;61036;53.224;6.554;2023-07-22T02:25:52;8.90;;;4.07;;
72895;SDS011;61036;53.224;6.554;2023-07-22T02:28:19;9.33;;;4.37;;
72895;SDS011;61036;53.224;6.554;2023-07-22T02:30:53;8.33;;;3.67;;
72895;SDS011;61036;53.224;6.554;2023-07-22T02:33:19;8.87;;;4.10;;
72895;SDS011;61036;53.224;6.554;2023-07-22T02:35:47;11.53;;;4.50;;
72895;SDS011;61036;53.224;6.554;2023-07-22T02:38:13;10.13;;;3.87;;
72895;SDS011;61036;53.224;6.554;2023-07-22T02:40:39;6.10;;;3.23;;
72895;SDS011;61036;53.224;6.554;2023-07-22T02:43:05;7.97;;;4.00;;
72895;SDS011;61036;53.224;6.554;2023-07-22T02:45:35;8.00;;;3.97;;
72895;SDS011;61036;53.224;6.554;2023-07-22T02:48:01;10.20;;;4.17;;
72895;SDS011;61036;53.224;6.554;2023-07-22T02:50:27;7.23;;;3.57;;
72895;SDS011;61036;53.224;6.554;2023-07-22T02:52:52;7.20;;;4.13;;
72895;SDS011;61036;53.224;6.554;2023-07-22T02:55:18;7.20;;;3.67;;
72895;SDS011;61036;53.224;6.554;2023-07-22T02:57:44;8.00;;;4.40;;
72895;SDS011;61036;53.224;6.554;2023-07-22T03:00:14;10.60;;;4.00;;
72895;SDS011;61036;53.224;6.554;2023-07-22T03:02:51;8.17;;;4.10;;
72895;SDS011;61036;53.224;6.554;2023-07-22T03:05:25;10.43;;;3.67;;
72895;SDS011;61036;53.224;6.554;2023-07-22T03:07:51;8.50;;;4.00;;
72895;SDS011;61036;53.224;6.554;2023-07-22T03:10:18;7.90;;;3.67;;
72895;SDS011;61036;53.224;6.554;2023-07-22T03:12:43;6.13;;;2.93;;
72895;SDS011;61036;53.224;6.554;2023-07-22T03:15:09;8.60;;;4.07;;
72895;SDS011;61036;53.224;6.554;2023-07-22T03:17:36;8.30;;;4.20;;
72895;SDS011;61036;53.224;6.554;2023-07-22T03:20:02;7.63;;;4.00;;
72895;SDS011;61036;53.224;6.554;2023-07-22T03:22:39;8.43;;;4.03;;
72895;SDS011;61036;53.224;6.554;2023-07-22T03:25:05;9.13;;;3.67;;
72895;SDS011;61036;53.224;6.554;2023-07-22T03:27:34;8.30;;;3.77;;
72895;SDS011;61036;53.224;6.554;2023-07-22T03:29:59;7.20;;;4.30;;
72895;SDS011;61036;53.224;6.554;2023-07-22T03:32:25;8.77;;;4.10;;
72895;SDS011;61036;53.224;6.554;2023-07-22T03:34:50;6.90;;;3.63;;
72895;SDS011;61036;53.224;6.554;2023-07-22T03:37:16;8.87;;;3.93;;
72895;SDS011;61036;53.224;6.554;2023-07-22T03:39:41;8.67;;;4.10;;
72895;SDS011;61036;53.224;6.554;2023-07-22T03:42:07;7.57;;;3.87;;
72895;SDS011;61036;53.224;6.554;2023-07-22T03:44:32;9.20;;;4.80;;
72895;SDS011;61036;53.224;6.554;2023-07-22T03:46:59;9.80;;;4.33;;
72895;SDS011;61036;53.224;6.554;2023-07-22T03:49:25;8.60;;;4.30;;
72895;SDS011;61036;53.224;6.554;2023-07-22T03:51:50;7.27;;;4.10;;
72895;SDS011;61036;53.224;6.554;2023-07-22T03:54:16;8.07;;;4.70;;
72895;SDS011;61036;53.224;6.554;2023-07-22T03:56:41;8.40;;;4.63;;
72895;SDS011;61036;53.224;6.554;2023-07-22T03:59:07;9.20;;;4.40;;
72895;SDS011;61036;53.224;6.554;2023-07-22T04:01:32;10.37;;;4.77;;
72895;SDS011;61036;53.224;6.554;2023-07-22T04:03:58;9.17;;;4.37;;
72895;SDS011;61036;53.224;6.554;2023-07-22T04:06:23;8.50;;;4.60;;
72895;SDS011;61036;53.224;6.554;2023-07-22T04:08:48;7.97;;;3.70;;
72895;SDS011;61036;53.224;6.554;2023-07-22T04:11:14;7.87;;;4.27;;
72895;SDS011;61036;53.224;6.554;2023-07-22T04:13:40;8.37;;;3.63;;
72895;SDS011;61036;53.224;6.554;2023-07-22T04:16:05;8.03;;;4.10;;
72895;SDS011;61036;53.224;6.554;2023-07-22T04:18:31;6.97;;;3.40;;
72895;SDS011;61036;53.224;6.554;2023-07-22T04:20:59;8.50;;;4.10;;
72895;SDS011;61036;53.224;6.554;2023-07-22T04:23:26;7.00;;;3.63;;
72895;SDS011;61036;53.224;6.554;2023-07-22T04:25:51;7.23;;;3.93;;
72895;SDS011;61036;53.224;6.554;2023-07-22T04:28:17;6.67;;;3.90;;
72895;SDS011;61036;53.224;6.554;2023-07-22T04:30:42;6.97;;;3.70;;
72895;SDS011;61036;53.224;6.554;2023-07-22T04:33:08;8.87;;;3.63;;
72895;SDS011;61036;53.224;6.554;2023-07-22T04:35:37;7.37;;;3.60;;
72895;SDS011;61036;53.224;6.554;2023-07-22T04:38:06;9.90;;;4.03;;
72895;SDS011;61036;53.224;6.554;2023-07-22T04:40:31;7.43;;;3.70;;
72895;SDS011;61036;53.224;6.554;2023-07-22T04:42:57;8.83;;;4.07;;
72895;SDS011;61036;53.224;6.554;2023-07-22T04:45:23;10.97;;;4.20;;
72895;SDS011;61036;53.224;6.554;2023-07-22T04:47:49;7.90;;;3.67;;
72895;SDS011;61036;53.224;6.554;2023-07-22T04:50:15;8.40;;;4.00;;
72895;SDS011;61036;53.224;6.554;2023-07-22T04:52:42;9.17;;;4.23;;
72895;SDS011;61036;53.224;6.554;2023-07-22T04:55:10;7.60;;;3.77;;
72895;SDS011;61036;53.224;6.554;2023-07-22T04:57:36;8.67;;;4.27;;
72895;SDS011;61036;53.224;6.554;2023-07-22T05:00:03;10.60;;;4.70;;
72895;SDS011;61036;53.224;6.554;2023-07-22T05:02:29;10.20;;;4.57;;
72895;SDS011;61036;53.224;6.554;2023-07-22T05:04:58;11.17;;;4.97;;
72895;SDS011;61036;53.224;6.554;2023-07-22T05:07:24;8.07;;;4.77;;
72895;SDS011;61036;53.224;6.554;2023-07-22T05:09:49;7.63;;;4.50;;
72895;SDS011;61036;53.224;6.554;2023-07-22T05:12:16;11.83;;;5.10;;
72895;SDS011;61036;53.224;6.554;2023-07-22T05:14:42;10.07;;;5.20;;
72895;SDS011;61036;53.224;6.554;2023-07-22T05:17:08;10.50;;;4.77;;
72895;SDS011;61036;53.224;6.554;2023-07-22T05:19:33;10.00;;;4.63;;
72895;SDS011;61036;53.224;6.554;2023-07-22T05:21:59;10.23;;;5.27;;
72895;SDS011;61036;53.224;6.554;2023-07-22T05:24:24;12.07;;;5.70;;
72895;SDS011;61036;53.224;6.554;2023-07-22T05:26:50;11.57;;;5.07;;
72895;SDS011;61036;53.224;6.554;2023-07-22T05:29:15;10.37;;;4.90;;
72895;SDS011;61036;53.224;6.554;2023-07-22T05:31:41;8.60;;;4.87;;
72895;SDS011;61036;53.224;6.554;2023-07-22T05:34:07;9.03;;;5.20;;
72895;SDS011;61036;53.224;6.554;2023-07-22T05:36:32;10.33;;;5.27;;
72895;SDS011;61036;53.224;6.554;2023-07-22T05:38:58;9.60;;;5.07;;
72895;SDS011;61036;53.224;6.554;2023-07-22T05:41:23;9.77;;;5.27;;
72895;SDS011;61036;53.224;6.554;2023-07-22T05:43:49;10.60;;;5.20;;
72895;SDS011;61036;53.224;6.554;2023-07-22T05:46:14;8.60;;;5.53;;
72895;SDS011;61036;53.224;6.554;2023-07-22T05:48:40;9.83;;;5.50;;
72895;SDS011;61036;53.224;6.554;2023-07-22T05:51:05;10.60;;;5.33;;
72895;SDS011;61036;53.224;6.554;2023-07-22T05:53:32;10.33;;;5.43;;
72895;SDS011;61036;53.224;6.554;2023-07-22T05:55:58;9.80;;;4.93;;
72895;SDS011;61036;53.224;6.554;2023-07-22T05:58:24;10.23;;;5.63;;
72895;SDS011;61036;53.224;6.554;2023-07-22T06:00:49;10.63;;;5.87;;
72895;SDS011;61036;53.224;6.554;2023-07-22T06:03:17;12.40;;;6.00;;
72895;SDS011;61036;53.224;6.554;2023-07-22T06:05:43;12.30;;;5.57;;
72895;SDS011;61036;53.224;6.554;2023-07-22T06:08:08;9.73;;;5.97;;
72895;SDS011;61036;53.224;6.554;2023-07-22T06:10:34;10.10;;;5.57;;
72895;SDS011;61036;53.224;6.554;2023-07-22T06:12:59;11.57;;;5.90;;
72895;SDS011;61036;53.224;6.554;2023-07-22T06:15:25;9.93;;;5.80;;
72895;SDS011;61036;53.224;6.554;2023-07-22T06:17:50;10.90;;;6.07;;
72895;SDS011;61036;53.224;6.554;2023-07-22T06:20:16;11.23;;;6.03;;
72895;SDS011;61036;53.224;6.554;2023-07-22T06:22:41;10.83;;;6.33;;
72895;SDS011;61036;53.224;6.554;2023-07-22T06:25:07;10.43;;;5.90;;
72895;SDS011;61036;53.224;6.554;2023-07-22T06:27:33;10.33;;;6.03;;
72895;SDS011;61036;53.224;6.554;2023-07-22T06:30:00;11.27;;;6.17;;
72895;SDS011;61036;53.224;6.554;2023-07-22T06:32:26;12.37;;;6.17;;
72895;SDS011;61036;53.224;6.554;2023-07-22T06:34:51;9.73;;;6.27;;
72895;SDS011;61036;53.224;6.554;2023-07-22T06:37:17;11.17;;;6.17;;
72895;SDS011;61036;53.224;6.554;2023-07-22T06:39:42;11.20;;;6.27;;
72895;SDS011;61036;53.224;6.554;2023-07-22T06:42:08;11.37;;;6.20;;
72895;SDS011;61036;53.224;6.554;2023-07-22T06:44:33;10.53;;;6.50;;
72895;SDS011;61036;53.224;6.554;2023-07-22T06:46:59;12.17;;;5.90;;
72895;SDS011;61036;53.224;6.554;2023-07-22T06:49:24;12.83;;;7.20;;
72895;SDS011;61036;53.224;6.554;2023-07-22T06:51:50;11.93;;;6.30;;
72895;SDS011;61036;53.224;6.554;2023-07-22T06:54:15;13.10;;;6.87;;
72895;SDS011;61036;53.224;6.554;2023-07-22T06:56:41;13.67;;;6.87;;
72895;SDS011;61036;53.224;6.554;2023-07-22T06:59:06;13.07;;;6.87;;
72895;SDS011;61036;53.224;6.554;2023-07-22T07:01:32;12.07;;;7.10;;
72895;SDS011;61036;53.224;6.554;2023-07-22T07:03:57;10.27;;;6.03;;
72895;SDS011;61036;53.224;6.554;2023-07-22T07:06:23;13.83;;;6.73;;
72895;SDS011;61036;53.224;6.554;2023-07-22T07:08:48;12.87;;;6.77;;
72895;SDS011;61036;53.224;6.554;2023-07-22T07:11:14;15.97;;;7.93;;
72895;SDS011;61036;53.224;6.554;2023-07-22T07:13:39;13.50;;;6.90;;
72895;SDS011;61036;53.224;6.554;2023-07-22T07:16:21;12.33;;;7.20;;
72895;SDS011;61036;53.224;6.554;2023-07-22T07:18:51;12.40;;;6.70;;
72895;SDS011;61036;53.224;6.554;2023-07-22T07:21:17;12.23;;;7.13;;
72895;SDS011;61036;53.224;6.554;2023-07-22T07:23:44;9.93;;;5.90;;
72895;SDS011;61036;53.224;6.554;2023-07-22T07:26:12;10.80;;;7.17;;
72895;SDS011;61036;53.224;6.554;2023-07-22T07:28:37;10.67;;;6.27;;
72895;SDS011;61036;53.224;6.554;2023-07-22T07:31:03;12.47;;;7.13;;
72895;SDS011;61036;53.224;6.554;2023-07-22T07:33:28;11.93;;;6.80;;
72895;SDS011;61036;53.224;6.554;2023-07-22T07:35:54;12.57;;;7.57;;
72895;SDS011;61036;53.224;6.554;2023-07-22T07:38:19;11.97;;;6.70;;
72895;SDS011;61036;53.224;6.554;2023-07-22T07:40:45;11.23;;;6.83;;
72895;SDS011;61036;53.224;6.554;2023-07-22T07:43:10;11.60;;;7.07;;
72895;SDS011;61036;53.224;6.554;2023-07-22T07:45:39;9.90;;;6.50;;
72895;SDS011;61036;53.224;6.554;2023-07-22T07:48:05;14.73;;;7.77;;
72895;SDS011;61036;53.224;6.554;2023-07-22T07:50:31;13.07;;;7.47;;
72895;SDS011;61036;53.224;6.554;2023-07-22T07:52:57;11.63;;;7.53;;
72895;SDS011;61036;53.224;6.554;2023-07-22T07:55:24;13.33;;;7.77;;
72895;SDS011;61036;53.224;6.554;2023-07-22T07:57:50;13.53;;;7.37;;
72895;SDS011;61036;53.224;6.554;2023-07-22T08:00:16;11.23;;;6.77;;
72895;SDS011;61036;53.224;6.554;2023-07-22T08:02:42;10.97;;;7.50;;
72895;SDS011;61036;53.224;6.554;2023-07-22T08:05:07;11.17;;;6.90;;
72895;SDS011;61036;53.224;6.554;2023-07-22T08:07:33;11.63;;;7.47;;
72895;SDS011;61036;53.224;6.554;2023-07-22T08:09:58;11.27;;;6.70;;
72895;SDS011;61036;53.224;6.554;2023-07-22T08:12:24;11.07;;;6.97;;
72895;SDS011;61036;53.224;6.554;2023-07-22T08:14:51;11.70;;;6.87;;
72895;SDS011;61036;53.224;6.554;2023-07-22T08:17:18;11.77;;;6.50;;
72895;SDS011;61036;53.224;6.554;2023-07-22T08:19:43;11.40;;;6.50;;
72895;SDS011;61036;53.224;6.554;2023-07-22T08:22:09;11.33;;;6.67;;
72895;SDS011;61036;53.224;6.554;2023-07-22T08:24:35;12.73;;;6.33;;
72895;SDS011;61036;53.224;6.554;2023-07-22T08:27:00;10.83;;;6.27;;
72895;SDS011;61036;53.224;6.554;2023-07-22T08:29:25;10.93;;;6.40;;
72895;SDS011;61036;53.224;6.554;2023-07-22T08:31:51;11.03;;;7.00;;
72895;SDS011;61036;53.224;6.554;2023-07-22T08:34:16;10.97;;;6.00;;
72895;SDS011;61036;53.224;6.554;2023-07-22T08:36:42;9.03;;;5.37;;
72895;SDS011;61036;53.224;6.554;2023-07-22T08:39:07;10.63;;;6.60;;
72895;SDS011;61036;53.224;6.554;2023-07-22T08:41:33;9.03;;;5.53;;
72895;SDS011;61036;53.224;6.554;2023-07-22T08:44:00;10.70;;;5.33;;
72895;SDS011;61036;53.224;6.554;2023-07-22T08:46:28;7.73;;;4.83;;
72895;SDS011;61036;53.224;6.554;2023-07-22T08:48:57;9.87;;;5.37;;
72895;SDS011;61036;53.224;6.554;2023-07-22T08:51:25;9.30;;;5.67;;
72895;SDS011;61036;53.224;6.554;2023-07-22T08:53:53;8.87;;;5.20;;
72895;SDS011;61036;53.224;6.554;2023-07-22T08:56:23;9.40;;;5.60;;
72895;SDS011;61036;53.224;6.554;2023-07-22T08:58:50;10.70;;;5.53;;
72895;SDS011;61036;53.224;6.554;2023-07-22T09:01:17;9.33;;;5.20;;
72895;SDS011;61036;53.224;6.554;2023-07-22T09:03:42;10.70;;;5.07;;
72895;SDS011;61036;53.224;6.554;2023-07-22T09:06:08;7.33;;;4.57;;
72895;SDS011;61036;53.224;6.554;2023-07-22T09:08:34;8.70;;;4.70;;
72895;SDS011;61036;53.224;6.554;2023-07-22T09:10:59;8.07;;;4.50;;
72895;SDS011;61036;53.224;6.554;2023-07-22T09:13:26;7.47;;;4.83;;
72895;SDS011;61036;53.224;6.554;2023-07-22T09:15:53;7.30;;;4.80;;
72895;SDS011;61036;53.224;6.554;2023-07-22T09:18:21;8.33;;;4.60;;
72895;SDS011;61036;53.224;6.554;2023-07-22T09:20:47;9.17;;;4.37;;
72895;SDS011;61036;53.224;6.554;2023-07-22T09:23:13;7.63;;;4.87;;
72895;SDS011;61036;53.224;6.554;2023-07-22T09:25:39;7.70;;;4.60;;
72895;SDS011;61036;53.224;6.554;2023-07-22T09:28:05;8.77;;;4.90;;
72895;SDS011;61036;53.224;6.554;2023-07-22T09:30:34;7.10;;;4.57;;
72895;SDS011;61036;53.224;6.554;2023-07-22T09:33:04;7.37;;;4.50;;
72895;SDS011;61036;53.224;6.554;2023-07-22T09:38:09;9.23;;;5.70;;
72895;SDS011;61036;53.224;6.554;2023-07-22T09:40:35;9.33;;;5.60;;
72895;SDS011;61036;53.224;6.554;2023-07-22T09:43:01;13.27;;;6.53;;
72895;SDS011;61036;53.224;6.554;2023-07-22T09:45:28;12.80;;;6.73;;
72895;SDS011;61036;53.224;6.554;2023-07-22T09:47:55;12.00;;;6.90;;
72895;SDS011;61036;53.224;6.554;2023-07-22T09:50:22;13.90;;;7.73;;
72895;SDS011;61036;53.224;6.554;2023-07-22T09:52:53;13.27;;;7.67;;
72895;SDS011;61036;53.224;6.554;2023-07-22T09:55:20;12.03;;;7.33;;
72895;SDS011;61036;53.224;6.554;2023-07-22T09:57:58;11.23;;;7.17;;
72895;SDS011;61036;53.224;6.554;2023-07-22T10:00:28;11.97;;;6.50;;
72895;SDS011;61036;53.224;6.554;2023-07-22T10:02:56;10.37;;;5.93;;
72895;SDS011;61036;53.224;6.554;2023-07-22T10:05:22;10.97;;;6.13;;
72895;SDS011;61036;53.224;6.554;2023-07-22T10:07:51;10.17;;;6.57;;
72895;SDS011;61036;53.224;6.554;2023-07-22T10:10:20;10.80;;;6.17;;
72895;SDS011;61036;53.224;6.554;2023-07-22T10:12:50;10.73;;;6.83;;
72895;SDS011;61036;53.224;6.554;2023-07-22T10:15:16;10.10;;;6.20;;
72895;SDS011;61036;53.224;6.554;2023-07-22T10:17:45;9.07;;;5.90;;
72895;SDS011;61036;53.224;6.554;2023-07-22T10:20:11;8.87;;;5.83;;
72895;SDS011;61036;53.224;6.554;2023-07-22T10:22:44;10.13;;;5.97;;
72895;SDS011;61036;53.224;6.554;2023-07-22T10:25:14;9.30;;;5.63;;
72895;SDS011;61036;53.224;6.554;2023-07-22T10:27:41;10.83;;;6.23;;
72895;SDS011;61036;53.224;6.554;2023-07-22T10:30:08;8.73;;;5.70;;
72895;SDS011;61036;53.224;6.554;2023-07-22T10:32:35;9.73;;;6.03;;
72895;SDS011;61036;53.224;6.554;2023-07-22T10:35:10;10.50;;;5.80;;
72895;SDS011;61036;53.224;6.554;2023-07-22T10:37:39;9.70;;;5.83;;
72895;SDS011;61036;53.224;6.554;2023-07-22T10:40:17;10.47;;;6.90;;
72895;SDS011;61036;53.224;6.554;2023-07-22T10:42:55;11.00;;;6.53;;
72895;SDS011;61036;53.224;6.554;2023-07-22T10:45:24;9.33;;;5.93;;
72895;SDS011;61036;53.224;6.554;2023-07-22T10:48:00;10.90;;;6.70;;
72895;SDS011;61036;53.224;6.554;2023-07-22T10:50:44;11.00;;;6.27;;
72895;SDS011;61036;53.224;6.554;2023-07-22T10:53:12;12.13;;;7.20;;
72895;SDS011;61036;53.224;6.554;2023-07-22T10:58:55;9.40;;;6.07;;
72895;SDS011;61036;53.224;6.554;2023-07-22T11:04:06;9.50;;;5.73;;
72895;SDS011;61036;53.224;6.554;2023-07-22T11:06:58;8.57;;;5.43;;
72895;SDS011;61036;53.224;6.554;2023-07-22T11:14:24;7.60;;;4.70;;
72895;SDS011;61036;53.224;6.554;2023-07-22T11:16:51;7.80;;;4.40;;
72895;SDS011;61036;53.224;6.554;2023-07-22T11:19:18;7.37;;;5.10;;
72895;SDS011;61036;53.224;6.554;2023-07-22T11:21:46;7.63;;;5.00;;
72895;SDS011;61036;53.224;6.554;2023-07-22T11:24:12;8.30;;;5.10;;
72895;SDS011;61036;53.224;6.554;2023-07-22T11:26:39;7.63;;;4.90;;
72895;SDS011;61036;53.224;6.554;2023-07-22T11:29:05;9.67;;;5.47;;
72895;SDS011;61036;53.224;6.554;2023-07-22T11:31:33;7.57;;;4.73;;
72895;SDS011;61036;53.224;6.554;2023-07-22T11:34:03;7.80;;;5.10;;
72895;SDS011;61036;53.224;6.554;2023-07-22T11:36:29;9.07;;;6.10;;
72895;SDS011;61036;53.224;6.554;2023-07-22T11:39:09;7.13;;;4.77;;
72895;SDS011;61036;53.224;6.554;2023-07-22T11:41:36;7.83;;;5.17;;
72895;SDS011;61036;53.224;6.554;2023-07-22T11:44:02;7.87;;;5.10;;
72895;SDS011;61036;53.224;6.554;2023-07-22T11:46:44;8.27;;;4.53;;
72895;SDS011;61036;53.224;6.554;2023-07-22T11:49:28;7.73;;;5.00;;
72895;SDS011;61036;53.224;6.554;2023-07-22T11:51:58;9.67;;;6.20;;
72895;SDS011;61036;53.224;6.554;2023-07-22T11:54:32;10.17;;;6.80;;
72895;SDS011;61036;53.224;6.554;2023-07-22T11:57:15;11.30;;;8.17;;
72895;SDS011;61036;53.224;6.554;2023-07-22T11:59:46;10.67;;;7.67;;
72895;SDS011;61036;53.224;6.554;2023-07-22T12:02:19;12.13;;;7.60;;
72895;SDS011;61036;53.224;6.554;2023-07-22T12:05:05;10.90;;;7.17;;
72895;SDS011;61036;53.224;6.554;2023-07-22T12:07:32;12.67;;;8.10;;
72895;SDS011;61036;53.224;6.554;2023-07-22T12:09:59;13.50;;;8.43;;
72895;SDS011;61036;53.224;6.554;2023-07-22T12:12:32;11.70;;;7.87;;
72895;SDS011;61036;53.224;6.554;2023-07-22T12:15:08;11.33;;;8.00;;
72895;SDS011;61036;53.224;6.554;2023-07-22T12:17:45;11.77;;;7.37;;
72895;SDS011;61036;53.224;6.554;2023-07-22T12:20:28;10.43;;;7.57;;
72895;SDS011;61036;53.224;6.554;2023-07-22T12:22:59;11.23;;;7.47;;
72895;SDS011;61036;53.224;6.554;2023-07-22T12:25:24;10.53;;;7.87;;
72895;SDS011;61036;53.224;6.554;2023-07-22T12:27:50;11.67;;;8.17;;
72895;SDS011;61036;53.224;6.554;2023-07-22T12:30:16;10.90;;;8.13;;
72895;SDS011;61036;53.224;6.554;2023-07-22T12:32:42;14.93;;;8.50;;
72895;SDS011;61036;53.224;6.554;2023-07-22T12:35:11;11.97;;;8.60;;
72895;SDS011;61036;53.224;6.554;2023-07-22T12:37:38;13.67;;;8.93;;
72895;SDS011;61036;53.224;6.554;2023-07-22T12:40:04;12.67;;;9.23;;
72895;SDS011;61036;53.224;6.554;2023-07-22T12:42:33;11.90;;;8.37;;
72895;SDS011;61036;53.224;6.554;2023-07-22T12:44:59;11.07;;;8.57;;
72895;SDS011;61036;53.224;6.554;2023-07-22T12:47:26;11.97;;;9.10;;
72895;SDS011;61036;53.224;6.554;2023-07-22T12:49:51;11.90;;;8.97;;
72895;SDS011;61036;53.224;6.554;2023-07-22T12:52:17;13.33;;;9.90;;
72895;SDS011;61036;53.224;6.554;2023-07-22T12:54:42;11.17;;;8.87;;
72895;SDS011;61036;53.224;6.554;2023-07-22T12:57:08;11.43;;;9.20;;
72895;SDS011;61036;53.224;6.554;2023-07-22T12:59:33;11.53;;;8.53;;
72895;SDS011;61036;53.224;6.554;2023-07-22T13:01:59;13.23;;;8.77;;
72895;SDS011;61036;53.224;6.554;2023-07-22T13:04:24;13.30;;;9.50;;
72895;SDS011;61036;53.224;6.554;2023-07-22T13:06:50;11.57;;;8.43;;
72895;SDS011;61036;53.224;6.554;2023-07-22T13:09:19;13.27;;;9.13;;
72895;SDS011;61036;53.224;6.554;2023-07-22T13:11:45;12.17;;;8.50;;
72895;SDS011;61036;53.224;6.554;2023-07-22T13:14:11;12.57;;;8.80;;
72895;SDS011;61036;53.224;6.554;2023-07-22T13:16:37;13.63;;;9.20;;
72895;SDS011;61036;53.224;6.554;2023-07-22T13:19:02;10.67;;;7.97;;
72895;SDS011;61036;53.224;6.554;2023-07-22T13:21:28;15.10;;;8.20;;
72895;SDS011;61036;53.224;6.554;2023-07-22T13:23:54;13.03;;;8.67;;
72895;SDS011;61036;53.224;6.554;2023-07-22T13:26:20;12.20;;;8.43;;
72895;SDS011;61036;53.224;6.554;2023-07-22T13:28:45;11.43;;;8.20;;
72895;SDS011;61036;53.224;6.554;2023-07-22T13:31:11;12.43;;;9.57;;
72895;SDS011;61036;53.224;6.554;2023-07-22T13:33:36;10.73;;;8.53;;
72895;SDS011;61036;53.224;6.554;2023-07-22T13:36:02;11.27;;;8.40;;
72895;SDS011;61036;53.224;6.554;2023-07-22T13:38:27;13.83;;;7.87;;
72895;SDS011;61036;53.224;6.554;2023-07-22T13:40:53;10.57;;;7.93;;
72895;SDS011;61036;53.224;6.554;2023-07-22T13:43:18;13.10;;;8.43;;
72895;SDS011;61036;53.224;6.554;2023-07-22T13:45:44;13.27;;;9.20;;
72895;SDS011;61036;53.224;6.554;2023-07-22T13:48:09;12.07;;;9.00;;
72895;SDS011;61036;53.224;6.554;2023-07-22T13:50:36;12.17;;;8.70;;
72895;SDS011;61036;53.224;6.554;2023-07-22T13:53:02;12.10;;;8.93;;
72895;SDS011;61036;53.224;6.554;2023-07-22T13:55:27;13.03;;;10.37;;
72895;SDS011;61036;53.224;6.554;2023-07-22T13:57:53;14.03;;;10.53;;
72895;SDS011;61036;53.224;6.554;2023-07-22T14:00:18;12.47;;;9.07;;
72895;SDS011;61036;53.224;6.554;2023-07-22T14:02:44;11.63;;;9.17;;
72895;SDS011;61036;53.224;6.554;2023-07-22T14:05:09;12.80;;;8.97;;
72895;SDS011;61036;53.224;6.554;2023-07-22T14:07:35;12.87;;;9.53;;
72895;SDS011;61036;53.224;6.554;2023-07-22T14:10:02;12.83;;;10.07;;
72895;SDS011;61036;53.224;6.554;2023-07-22T14:12:29;11.53;;;9.20;;
72895;SDS011;61036;53.224;6.554;2023-07-22T14:14:55;14.83;;;10.30;;
72895;SDS011;61036;53.224;6.554;2023-07-22T14:17:20;14.40;;;10.00;;
72895;SDS011;61036;53.224;6.554;2023-07-22T14:19:46;11.53;;;8.90;;
72895;SDS011;61036;53.224;6.554;2023-07-22T14:22:11;11.57;;;9.03;;
72895;SDS011;61036;53.224;6.554;2023-07-22T14:24:36;12.37;;;9.03;;
72895;SDS011;61036;53.224;6.554;2023-07-22T14:27:02;11.47;;;8.03;;
72895;SDS011;61036;53.224;6.554;2023-07-22T14:29:27;11.47;;;8.50;;
72895;SDS011;61036;53.224;6.554;2023-07-22T14:31:55;10.43;;;7.73;;
72895;SDS011;61036;53.224;6.554;2023-07-22T14:34:21;12.53;;;9.10;;
72895;SDS011;61036;53.224;6.554;2023-07-22T14:36:47;10.10;;;8.20;;
72895;SDS011;61036;53.224;6.554;2023-07-22T14:39:13;13.93;;;8.43;;
72895;SDS011;61036;53.224;6.554;2023-07-22T14:41:40;13.17;;;8.70;;
72895;SDS011;61036;53.224;6.554;2023-07-22T14:44:06;14.57;;;9.43;;
72895;SDS011;61036;53.224;6.554;2023-07-22T14:46:32;12.43;;;9.17;;
72895;SDS011;61036;53.224;6.554;2023-07-22T14:48:57;13.13;;;8.93;;
72895;SDS011;61036;53.224;6.554;2023-07-22T14:51:23;12.07;;;8.07;;
72895;SDS011;61036;53.224;6.554;2023-07-22T14:53:48;10.50;;;8.60;;